createdAt,value
2017-12-21T00:01:27.748Z,92.07
2017-12-21T00:03:58.806Z,91.88
2017-12-21T00:06:27.090Z,92.48
2017-12-21T00:08:58.990Z,91.84
2017-12-21T00:11:27.313Z,92.04
2017-12-21T00:13:59.912Z,92.15
2017-12-21T00:16:28.697Z,91.80
2017-12-21T00:19:00.109Z,91.85
2017-12-21T00:21:28.412Z,92.03
2017-12-21T00:23:59.829Z,92.37
2017-12-21T00:26:28.215Z,92.23
2017-12-21T00:29:00.375Z,92.21
2017-12-21T00:31:28.685Z,92.25
2017-12-21T00:33:59.994Z,92.35
2017-12-21T00:36:28.275Z,92.24
2017-12-21T00:39:00.196Z,92.01
2017-12-21T00:41:28.470Z,92.27
2017-12-21T00:44:00.217Z,92.09
2017-12-21T00:46:29.242Z,92.35
2017-12-21T00:48:59.422Z,92.33
2017-12-21T00:51:27.660Z,92.37
2017-12-21T00:53:59.781Z,92.54
2017-12-21T00:56:28.072Z,92.59
2017-12-21T00:59:00.073Z,92.55
2017-12-21T01:01:28.388Z,92.43
2017-12-21T01:03:59.816Z,92.59
2017-12-21T01:06:28.125Z,92.24
2017-12-21T01:08:59.781Z,92.50
2017-12-21T01:11:28.074Z,92.46
2017-12-21T01:13:59.710Z,92.34
2017-12-21T01:16:28.022Z,92.34
2017-12-21T01:18:59.354Z,92.21
2017-12-21T01:21:27.864Z,92.04
2017-12-21T01:24:00.333Z,91.85
2017-12-21T01:26:28.626Z,91.86
2017-12-21T01:28:58.383Z,91.92
2017-12-21T01:31:26.662Z,91.98
2017-12-21T01:33:58.845Z,91.92
2017-12-21T01:36:27.925Z,91.92
2017-12-21T01:38:57.917Z,92.28
2017-12-21T01:41:26.234Z,92.05
2017-12-21T01:43:57.699Z,91.94
2017-12-21T01:46:26.089Z,92.04
2017-12-21T01:48:58.514Z,92.48
2017-12-21T01:51:26.806Z,92.12
2017-12-21T01:53:58.723Z,92.13
2017-12-21T01:56:26.990Z,92.07
2017-12-21T01:58:58.671Z,92.26
2017-12-21T02:01:26.978Z,92.08
2017-12-21T02:03:59.049Z,92.31
2017-12-21T02:06:27.386Z,92.14
2017-12-21T02:08:59.552Z,92.16
2017-12-21T02:11:27.859Z,91.89
2017-12-21T02:13:58.264Z,91.96
2017-12-21T02:16:27.381Z,92.11
2017-12-21T02:18:58.627Z,92.37
2017-12-21T02:21:26.908Z,92.44
2017-12-21T02:23:58.779Z,92.58
2017-12-21T02:26:28.277Z,92.49
2017-12-21T02:28:58.660Z,92.67
2017-12-21T02:31:26.981Z,92.68
2017-12-21T02:33:58.984Z,92.48
2017-12-21T02:36:27.277Z,92.53
2017-12-21T02:38:59.272Z,92.89
2017-12-21T02:41:27.555Z,92.54
2017-12-21T02:43:59.441Z,92.47
2017-12-21T02:46:27.752Z,92.52
2017-12-21T02:48:57.874Z,92.26
2017-12-21T02:51:26.179Z,92.10
2017-12-21T02:53:58.107Z,92.23
2017-12-21T02:56:26.397Z,92.47
2017-12-21T02:58:58.611Z,92.48
2017-12-21T03:01:26.885Z,92.39
2017-12-21T03:03:59.008Z,92.31
2017-12-21T03:06:27.292Z,92.66
2017-12-21T03:08:59.329Z,92.74
2017-12-21T03:11:27.625Z,92.55
2017-12-21T03:13:59.521Z,92.23
2017-12-21T03:16:27.864Z,92.20
2017-12-21T03:18:57.881Z,92.52
2017-12-21T03:21:26.173Z,92.60
2017-12-21T03:24:01.355Z,92.59
2017-12-21T03:26:29.644Z,92.48
2017-12-21T03:28:57.936Z,92.51
2017-12-21T03:31:26.290Z,92.43
2017-12-21T03:33:58.456Z,92.44
2017-12-21T03:36:26.738Z,92.49
2017-12-21T03:38:59.077Z,92.59
2017-12-21T03:41:27.353Z,92.68
2017-12-21T03:43:58.592Z,92.65
2017-12-21T03:46:26.901Z,92.67
2017-12-21T03:48:57.767Z,92.56
2017-12-21T03:51:26.210Z,92.41
2017-12-21T03:54:01.231Z,92.61
2017-12-21T03:56:29.527Z,92.71
2017-12-21T03:58:58.548Z,92.64
2017-12-21T04:01:26.849Z,92.48
2017-12-21T04:03:58.554Z,92.63
2017-12-21T04:06:26.857Z,92.68
2017-12-21T04:08:58.858Z,92.51
2017-12-21T04:11:27.126Z,92.55
2017-12-21T04:13:57.950Z,92.61
2017-12-21T04:16:26.250Z,92.36
2017-12-21T04:19:01.406Z,92.56
2017-12-21T04:21:29.805Z,92.61
2017-12-21T04:23:58.108Z,92.69
2017-12-21T04:26:26.631Z,92.64
2017-12-21T04:28:57.941Z,92.56
2017-12-21T04:31:26.226Z,92.64
2017-12-21T04:34:01.165Z,92.70
2017-12-21T04:36:29.457Z,92.38
2017-12-21T04:38:57.805Z,92.42
2017-12-21T04:41:26.853Z,92.72
2017-12-21T04:43:58.902Z,92.59
2017-12-21T04:46:27.184Z,92.67
2017-12-21T04:48:58.836Z,92.34
2017-12-21T04:51:27.254Z,92.31
2017-12-21T04:53:59.132Z,92.53
2017-12-21T04:56:27.421Z,92.46
2017-12-21T04:58:59.980Z,92.32
2017-12-21T05:01:28.290Z,92.52
2017-12-21T05:03:58.129Z,92.38
2017-12-21T05:06:26.606Z,92.21
2017-12-21T05:08:59.000Z,92.18
2017-12-21T05:11:27.565Z,92.19
2017-12-21T05:13:59.716Z,92.07
2017-12-21T05:16:28.009Z,92.12
2017-12-21T05:18:59.426Z,92.21
2017-12-21T05:21:27.730Z,92.23
2017-12-21T05:23:57.760Z,91.82
2017-12-21T05:26:26.045Z,91.59
2017-12-21T05:28:57.481Z,91.76
2017-12-21T05:31:26.039Z,92.06
2017-12-21T05:33:57.682Z,92.09
2017-12-21T05:36:25.973Z,91.94
2017-12-21T05:38:57.503Z,91.64
2017-12-21T05:41:25.792Z,91.55
2017-12-21T05:44:00.884Z,91.52
2017-12-21T05:46:29.322Z,91.69
2017-12-21T05:48:58.384Z,91.56
2017-12-21T05:51:26.894Z,91.47
2017-12-21T05:53:58.168Z,91.37
2017-12-21T05:56:26.440Z,91.57
2017-12-21T05:59:00.530Z,91.83
2017-12-21T06:01:28.950Z,91.70
2017-12-21T06:03:58.493Z,91.74
2017-12-21T06:06:26.789Z,91.64
2017-12-21T06:08:57.822Z,91.56
2017-12-21T06:11:26.555Z,91.34
2017-12-21T06:13:58.047Z,91.91
2017-12-21T06:16:26.349Z,92.00
2017-12-21T06:18:57.884Z,91.65
2017-12-21T06:21:26.172Z,91.68
2017-12-21T06:24:01.590Z,91.69
2017-12-21T06:26:29.899Z,91.74
2017-12-21T06:28:58.204Z,91.58
2017-12-21T06:31:26.477Z,91.55
2017-12-21T06:33:58.526Z,91.59
2017-12-21T06:36:26.793Z,91.31
2017-12-21T06:38:57.819Z,90.80
2017-12-21T06:41:26.099Z,91.33
2017-12-21T06:43:58.209Z,91.25
2017-12-21T06:46:26.487Z,91.37
2017-12-21T06:48:57.879Z,91.49
2017-12-21T06:51:26.753Z,91.21
2017-12-21T06:53:57.801Z,91.16
2017-12-21T06:56:26.081Z,90.79
2017-12-21T06:58:57.628Z,91.08
2017-12-21T07:01:25.908Z,91.00
2017-12-21T07:03:57.389Z,90.97
2017-12-21T07:06:26.021Z,91.11
2017-12-21T07:09:01.339Z,91.21
2017-12-21T07:11:29.612Z,91.05
2017-12-21T07:13:57.912Z,91.21
2017-12-21T07:16:26.388Z,91.52
2017-12-21T07:18:58.296Z,91.18
2017-12-21T07:21:26.544Z,91.07
2017-12-21T07:23:58.752Z,90.89
2017-12-21T07:26:27.040Z,91.30
2017-12-21T07:28:59.055Z,91.17
2017-12-21T07:31:27.379Z,91.19
2017-12-21T07:33:58.864Z,91.29
2017-12-21T07:36:27.402Z,91.49
2017-12-21T07:38:59.176Z,91.14
2017-12-21T07:41:27.460Z,91.39
2017-12-21T07:43:59.473Z,91.19
2017-12-21T07:46:27.796Z,91.06
2017-12-21T07:48:59.394Z,90.88
2017-12-21T07:51:27.700Z,90.90
2017-12-21T07:53:59.308Z,91.04
2017-12-21T07:56:27.610Z,91.16
2017-12-21T07:58:59.131Z,91.22
2017-12-21T08:01:27.423Z,91.13
2017-12-21T08:03:58.948Z,91.15
2017-12-21T08:06:27.231Z,91.21
2017-12-21T08:08:58.771Z,91.30
2017-12-21T08:11:27.166Z,91.62
2017-12-21T08:13:58.484Z,91.14
2017-12-21T08:16:26.779Z,90.90
2017-12-21T08:18:57.815Z,90.68
2017-12-21T08:21:26.097Z,90.81
2017-12-21T08:23:57.570Z,90.93
2017-12-21T08:26:25.853Z,91.05
2017-12-21T08:29:00.764Z,90.80
2017-12-21T08:31:29.063Z,90.69
2017-12-21T08:33:58.169Z,90.25
2017-12-21T08:36:26.469Z,89.98
2017-12-21T08:38:57.846Z,90.08
2017-12-21T08:41:26.155Z,90.37
2017-12-21T08:43:57.860Z,90.47
2017-12-21T08:46:26.145Z,90.68
2017-12-21T08:48:57.649Z,90.65
2017-12-21T08:51:26.548Z,90.81
2017-12-21T08:54:00.509Z,90.74
2017-12-21T08:56:28.828Z,90.81
2017-12-21T08:58:58.665Z,91.29
2017-12-21T09:01:26.973Z,91.32
2017-12-21T09:03:58.768Z,91.21
2017-12-21T09:06:27.197Z,91.62
2017-12-21T09:08:58.881Z,91.75
2017-12-21T09:11:27.968Z,92.21
2017-12-21T09:14:00.991Z,92.11
2017-12-21T09:16:29.380Z,92.52
2017-12-21T09:18:58.627Z,92.30
2017-12-21T09:21:27.133Z,91.85
2017-12-21T09:23:58.147Z,92.19
2017-12-21T09:26:26.923Z,91.86
2017-12-21T09:28:58.746Z,92.01
2017-12-21T09:31:27.133Z,91.93
2017-12-21T09:33:59.378Z,91.71
2017-12-21T09:36:27.847Z,91.35
2017-12-21T09:38:57.964Z,91.12
2017-12-21T09:41:26.269Z,90.88
2017-12-21T09:43:57.743Z,90.80
2017-12-21T09:46:26.037Z,91.09
2017-12-21T09:48:57.537Z,91.64
2017-12-21T09:51:25.838Z,92.20
2017-12-21T09:53:57.284Z,91.77
2017-12-21T09:56:25.579Z,91.50
2017-12-21T09:59:00.248Z,91.42
2017-12-21T10:01:28.552Z,91.44
2017-12-21T10:03:59.111Z,91.27
2017-12-21T10:06:27.408Z,91.30
2017-12-21T10:08:59.276Z,91.18
2017-12-21T10:11:27.600Z,90.86
2017-12-21T10:13:59.123Z,90.64
2017-12-21T10:16:27.423Z,90.56
2017-12-21T10:18:59.114Z,90.21
2017-12-21T10:21:27.423Z,90.39
2017-12-21T10:23:58.956Z,90.31
2017-12-21T10:26:27.560Z,90.27
2017-12-21T10:28:59.073Z,90.63
2017-12-21T10:31:27.411Z,90.37
2017-12-21T10:33:59.482Z,90.48
2017-12-21T10:36:27.766Z,90.46
2017-12-21T10:39:00.124Z,90.52
2017-12-21T10:41:28.400Z,90.00
2017-12-21T10:43:58.183Z,90.02
2017-12-21T10:46:26.457Z,90.55
2017-12-21T10:49:00.424Z,90.18
2017-12-21T10:51:28.793Z,90.07
2017-12-21T10:53:58.217Z,90.64
2017-12-21T10:56:26.489Z,90.33
2017-12-21T10:59:00.647Z,90.00
2017-12-21T11:01:28.893Z,90.18
2017-12-21T11:03:58.610Z,89.99
2017-12-21T11:06:26.897Z,89.84
2017-12-21T11:08:58.565Z,90.03
2017-12-21T11:11:26.865Z,89.96
2017-12-21T11:13:58.980Z,90.24
2017-12-21T11:16:27.295Z,90.35
2017-12-21T11:18:58.580Z,90.29
2017-12-21T11:21:27.530Z,90.36
2017-12-21T11:23:59.353Z,90.78
2017-12-21T11:26:27.661Z,90.77
2017-12-21T11:28:59.113Z,90.81
2017-12-21T11:31:27.409Z,90.87
2017-12-21T11:33:59.516Z,90.71
2017-12-21T11:36:27.809Z,90.99
2017-12-21T11:38:57.988Z,91.31
2017-12-21T11:41:26.294Z,90.67
2017-12-21T11:44:01.833Z,91.01
2017-12-21T11:46:30.937Z,90.76
2017-12-21T11:48:59.400Z,90.31
2017-12-21T11:51:27.677Z,90.47
2017-12-21T11:53:59.672Z,90.49
2017-12-21T11:56:27.938Z,90.56
2017-12-21T11:58:57.911Z,90.98
2017-12-21T12:01:26.177Z,90.99
2017-12-21T12:04:00.265Z,90.73
2017-12-21T12:06:28.550Z,90.64
2017-12-21T12:08:58.770Z,90.95
2017-12-21T12:11:27.050Z,91.16
2017-12-21T12:13:57.978Z,91.47
2017-12-21T12:16:26.275Z,91.42
2017-12-21T12:19:01.295Z,91.11
2017-12-21T12:21:29.573Z,91.48
2017-12-21T12:23:58.053Z,91.46
2017-12-21T12:26:26.362Z,91.54
2017-12-21T12:29:01.416Z,91.72
2017-12-21T12:31:30.165Z,91.83
2017-12-21T12:33:58.501Z,91.48
2017-12-21T12:36:26.845Z,91.81
2017-12-21T12:38:58.661Z,91.87
2017-12-21T12:41:26.960Z,92.19
2017-12-21T12:43:57.930Z,92.17
2017-12-21T12:46:26.241Z,92.37
2017-12-21T12:48:58.054Z,92.39
2017-12-21T12:51:26.482Z,92.17
2017-12-21T12:53:57.795Z,91.87
2017-12-21T12:56:26.215Z,92.06
2017-12-21T12:58:58.292Z,91.91
2017-12-21T13:01:27.460Z,92.03
2017-12-21T13:03:58.988Z,91.97
2017-12-21T13:06:27.511Z,92.07
2017-12-21T13:08:59.269Z,92.01
2017-12-21T13:11:27.541Z,92.19
2017-12-21T13:13:59.705Z,92.29
2017-12-21T13:16:28.044Z,92.11
2017-12-21T13:19:01.225Z,92.32
2017-12-21T13:21:29.530Z,92.06
2017-12-21T13:23:58.936Z,92.04
2017-12-21T13:26:27.270Z,92.26
2017-12-21T13:28:58.606Z,92.23
2017-12-21T13:31:26.917Z,92.15
2017-12-21T13:33:58.479Z,91.98
2017-12-21T13:36:26.774Z,91.68
2017-12-21T13:38:58.037Z,91.93
2017-12-21T13:41:26.317Z,92.01
2017-12-21T13:43:57.834Z,92.06
2017-12-21T13:46:26.093Z,91.89
2017-12-21T13:48:57.381Z,92.15
2017-12-21T13:51:25.650Z,92.15
2017-12-21T13:54:00.461Z,92.41
2017-12-21T13:56:28.756Z,92.52
2017-12-21T13:58:58.165Z,92.46
2017-12-21T14:01:26.490Z,92.46
2017-12-21T14:03:58.052Z,92.34
2017-12-21T14:06:26.477Z,92.89
2017-12-21T14:08:57.870Z,92.75
2017-12-21T14:11:26.159Z,92.74
2017-12-21T14:13:57.404Z,92.77
2017-12-21T14:16:26.507Z,92.70
2017-12-21T14:18:57.896Z,92.74
2017-12-21T14:21:26.181Z,92.72
2017-12-21T14:23:57.681Z,93.01
2017-12-21T14:26:25.925Z,92.70
2017-12-21T14:29:00.965Z,92.95
2017-12-21T14:31:29.385Z,92.57
2017-12-21T14:33:58.393Z,92.66
2017-12-21T14:36:26.681Z,92.53
2017-12-21T14:38:58.847Z,92.68
2017-12-21T14:41:27.195Z,92.56
2017-12-21T14:43:59.118Z,92.54
2017-12-21T14:46:27.424Z,92.37
2017-12-21T14:48:58.914Z,92.88
2017-12-21T14:51:27.217Z,92.67
2017-12-21T14:53:58.721Z,92.59
2017-12-21T14:56:27.077Z,92.53
2017-12-21T14:58:58.036Z,92.25
2017-12-21T15:01:26.334Z,92.26
2017-12-21T15:04:01.577Z,92.37
2017-12-21T15:06:29.973Z,92.47
2017-12-21T15:08:58.270Z,92.45
2017-12-21T15:11:26.541Z,92.22
2017-12-21T15:13:58.973Z,92.33
2017-12-21T15:16:27.250Z,92.11
2017-12-21T15:18:58.051Z,92.11
2017-12-21T15:21:26.329Z,92.36
2017-12-21T15:24:01.609Z,92.61
2017-12-21T15:26:29.880Z,92.55
2017-12-21T15:28:58.445Z,92.77
2017-12-21T15:31:26.730Z,92.57
2017-12-21T15:33:58.694Z,93.12
2017-12-21T15:36:27.164Z,93.12
2017-12-21T15:38:58.883Z,93.12
2017-12-21T15:41:27.470Z,93.11
2017-12-21T15:43:58.976Z,93.05
2017-12-21T15:46:27.310Z,93.72
2017-12-21T15:48:58.510Z,94.04
2017-12-21T15:51:26.966Z,94.07
2017-12-21T15:53:58.596Z,93.93
2017-12-21T15:56:26.991Z,94.23
2017-12-21T15:58:59.362Z,94.23
2017-12-21T16:01:27.662Z,94.37
2017-12-21T16:03:59.340Z,94.50
2017-12-21T16:06:27.637Z,94.11
2017-12-21T16:08:58.138Z,93.98
2017-12-21T16:11:26.430Z,94.12
2017-12-21T16:14:01.534Z,94.19
2017-12-21T16:16:29.839Z,94.05
2017-12-21T16:18:58.164Z,94.10
2017-12-21T16:21:26.463Z,94.24
2017-12-21T16:24:01.609Z,94.30
2017-12-21T16:26:30.515Z,94.20
2017-12-21T16:28:58.788Z,93.42
2017-12-21T16:31:27.070Z,93.47
2017-12-21T16:33:57.173Z,93.82
2017-12-21T16:36:25.469Z,94.03
2017-12-21T16:39:00.600Z,94.10
2017-12-21T16:41:29.025Z,94.03
2017-12-21T16:43:57.337Z,94.15
2017-12-21T16:46:25.616Z,94.22
2017-12-21T16:48:57.375Z,94.10
2017-12-21T16:51:25.676Z,93.55
2017-12-21T16:53:57.102Z,93.70
2017-12-21T16:56:25.405Z,93.41
2017-12-21T16:58:56.852Z,93.59
2017-12-21T17:01:25.159Z,93.32
2017-12-21T17:03:56.497Z,93.15
2017-12-21T17:06:25.074Z,92.90
2017-12-21T17:08:56.465Z,93.04
2017-12-21T17:11:24.765Z,92.72
2017-12-21T17:13:59.654Z,92.52
2017-12-21T17:16:27.990Z,92.64
2017-12-21T17:18:57.037Z,92.44
2017-12-21T17:21:25.353Z,91.95
2017-12-21T17:23:57.264Z,91.75
2017-12-21T17:26:25.561Z,91.78
2017-12-21T17:28:57.806Z,92.22
2017-12-21T17:31:26.060Z,92.13
2017-12-21T17:33:58.804Z,92.01
2017-12-21T17:36:27.168Z,91.87
2017-12-21T17:38:57.180Z,92.13
2017-12-21T17:41:26.012Z,92.32
2017-12-21T17:43:57.804Z,92.32
2017-12-21T17:46:26.145Z,92.26
2017-12-21T17:48:58.436Z,92.21
2017-12-21T17:51:26.960Z,92.32
2017-12-21T17:53:58.737Z,92.64
2017-12-21T17:56:27.177Z,92.30
2017-12-21T17:59:00.325Z,92.16
2017-12-21T18:01:28.621Z,91.82
2017-12-21T18:03:57.837Z,91.89
2017-12-21T18:06:26.118Z,91.72
2017-12-21T18:08:58.165Z,91.87
2017-12-21T18:11:26.525Z,91.84
2017-12-21T18:13:58.670Z,91.60
2017-12-21T18:16:27.092Z,91.82
2017-12-21T18:18:57.013Z,91.87
2017-12-21T18:21:25.621Z,91.69
2017-12-21T18:23:57.772Z,91.91
2017-12-21T18:26:26.106Z,91.66
2017-12-21T18:28:57.280Z,91.75
2017-12-21T18:31:25.557Z,91.85
2017-12-21T18:33:56.870Z,92.24
2017-12-21T18:36:25.805Z,92.24
2017-12-21T18:38:57.157Z,92.22
2017-12-21T18:41:25.521Z,92.22
2017-12-21T18:44:00.579Z,91.89
2017-12-21T18:46:29.129Z,91.86
2017-12-21T18:48:57.420Z,91.74
2017-12-21T18:51:25.725Z,91.70
2017-12-21T18:53:57.101Z,91.35
2017-12-21T18:56:25.412Z,91.24
2017-12-21T18:58:56.980Z,91.33
2017-12-21T19:01:25.282Z,91.37
2017-12-21T19:03:56.825Z,91.62
2017-12-21T19:06:25.132Z,91.60
2017-12-21T19:09:00.152Z,91.69
2017-12-21T19:11:28.445Z,91.72
2017-12-21T19:13:57.682Z,91.94
2017-12-21T19:16:25.960Z,91.92
2017-12-21T19:18:58.155Z,92.05
2017-12-21T19:21:27.021Z,91.89
2017-12-21T19:23:57.589Z,91.81
2017-12-21T19:26:26.037Z,91.82
2017-12-21T19:28:58.005Z,91.88
2017-12-21T19:31:26.289Z,91.92
2017-12-21T19:33:57.489Z,92.17
2017-12-21T19:36:26.185Z,92.23
2017-12-21T19:38:57.928Z,92.20
2017-12-21T19:41:26.708Z,92.33
2017-12-21T19:43:58.398Z,92.40
2017-12-21T19:46:26.881Z,92.52
2017-12-21T19:48:58.231Z,92.76
2017-12-21T19:51:26.522Z,92.93
2017-12-21T19:53:57.837Z,92.74
2017-12-21T19:56:26.158Z,92.66
2017-12-21T19:58:57.822Z,92.65
2017-12-21T20:01:26.114Z,92.72
2017-12-21T20:03:57.334Z,92.56
2017-12-21T20:06:25.978Z,92.67
2017-12-21T20:08:58.201Z,92.37
2017-12-21T20:11:26.526Z,92.28
2017-12-21T20:13:58.703Z,92.20
2017-12-21T20:16:27.520Z,92.30
2017-12-21T20:18:57.436Z,92.57
2017-12-21T20:21:25.832Z,92.70
2017-12-21T20:23:59.876Z,93.11
2017-12-21T20:26:28.181Z,93.23
2017-12-21T20:28:57.724Z,92.86
2017-12-21T20:31:26.087Z,92.82
2017-12-21T20:33:57.519Z,92.98
2017-12-21T20:36:25.962Z,92.94
2017-12-21T20:38:57.431Z,93.03
2017-12-21T20:41:25.775Z,93.13
2017-12-21T20:43:57.941Z,93.30
2017-12-21T20:46:26.249Z,93.00
2017-12-21T20:48:57.152Z,92.71
2017-12-21T20:51:25.513Z,92.83
2017-12-21T20:53:56.945Z,92.87
2017-12-21T20:56:25.246Z,92.85
2017-12-21T20:58:56.589Z,92.76
2017-12-21T21:01:24.925Z,92.88
2017-12-21T21:03:56.398Z,93.01
2017-12-21T21:06:24.711Z,93.04
2017-12-21T21:08:59.370Z,92.99
2017-12-21T21:11:27.832Z,93.01
2017-12-21T21:13:57.857Z,92.87
2017-12-21T21:16:26.428Z,92.68
2017-12-21T21:18:58.597Z,92.72
2017-12-21T21:21:26.909Z,92.79
2017-12-21T21:23:58.210Z,92.93
2017-12-21T21:26:27.018Z,92.74
2017-12-21T21:28:58.437Z,92.64
2017-12-21T21:31:26.741Z,92.54
2017-12-21T21:33:58.467Z,92.32
2017-12-21T21:36:27.110Z,92.20
2017-12-21T21:38:57.290Z,92.43
2017-12-21T21:41:25.569Z,92.38
2017-12-21T21:43:57.401Z,92.26
2017-12-21T21:46:25.681Z,91.83
2017-12-21T21:48:57.151Z,91.74
2017-12-21T21:51:25.436Z,92.24
2017-12-21T21:53:57.101Z,92.42
2017-12-21T21:56:26.194Z,92.65
2017-12-21T21:58:58.719Z,92.63
2017-12-21T22:01:27.273Z,92.18
2017-12-21T22:04:00.352Z,92.25
2017-12-21T22:06:28.629Z,92.39
2017-12-21T22:08:58.112Z,92.17
2017-12-21T22:11:26.411Z,92.01
2017-12-21T22:13:58.954Z,92.00
2017-12-21T22:16:27.253Z,91.74
2017-12-21T22:18:58.486Z,92.09
2017-12-21T22:21:26.953Z,92.07
2017-12-21T22:23:58.205Z,92.11
2017-12-21T22:26:26.505Z,91.91
2017-12-21T22:28:58.046Z,91.87
2017-12-21T22:31:26.334Z,91.73
2017-12-21T22:33:57.756Z,91.69
2017-12-21T22:36:26.071Z,91.65
2017-12-21T22:38:58.061Z,91.75
2017-12-21T22:41:26.334Z,91.67
2017-12-21T22:43:57.868Z,91.86
2017-12-21T22:46:26.157Z,91.82
2017-12-21T22:48:57.908Z,91.72
2017-12-21T22:51:27.025Z,91.61
2017-12-21T22:53:58.557Z,91.39
2017-12-21T22:56:26.861Z,91.66
2017-12-21T22:58:58.594Z,91.83
2017-12-21T23:01:26.874Z,91.74
2017-12-21T23:03:58.723Z,91.74
2017-12-21T23:06:27.166Z,91.73
2017-12-21T23:08:57.985Z,91.85
2017-12-21T23:11:26.250Z,91.99
2017-12-21T23:14:00.238Z,91.70
2017-12-21T23:16:28.826Z,91.41
2017-12-21T23:18:58.444Z,91.61
2017-12-21T23:21:26.770Z,91.17
2017-12-21T23:23:58.426Z,91.50
2017-12-21T23:26:26.705Z,91.89
2017-12-21T23:28:57.566Z,91.64
2017-12-21T23:31:25.885Z,91.36
2017-12-21T23:33:57.661Z,91.75
2017-12-21T23:36:25.967Z,91.54
2017-12-21T23:38:57.770Z,91.51
2017-12-21T23:41:26.074Z,91.38
2017-12-21T23:43:57.886Z,91.66
2017-12-21T23:46:26.622Z,91.66
2017-12-21T23:48:58.246Z,91.61
2017-12-21T23:51:26.625Z,91.86
2017-12-21T23:53:58.359Z,91.83
2017-12-21T23:56:26.785Z,91.47
2017-12-21T23:58:58.410Z,91.42
